Time,TemperatureF,DewpointF,PressureIn,WindDirection,WindDirectionDegrees,WindSpeedMPH,WindSpeedGustMPH,Humidity,HourlyPrecipIn,Conditions,Clouds,dailyrainin,SoftwareType,DateUTC
2013-04-05 00:03:00,37.0,37.0,-100.00,SSE,150,1.0,3.0,100,0.04,,,1.18,,2013-04-05 04:03:00,
2013-04-05 00:13:00,37.0,37.0,-100.00,SSE,150,1.0,3.0,100,0.04,,,1.18,,2013-04-05 04:13:00,
2013-04-05 00:23:00,37.0,37.0,-100.00,ENE,61,1.0,2.0,100,0.06,,,1.19,,2013-04-05 04:23:00,
2013-04-05 00:33:00,37.0,37.0,-100.00,SW,220,1.0,2.0,100,0.03,,,1.23,,2013-04-05 04:33:00,
2013-04-05 00:42:00,37.0,37.0,-100.00,SW,220,1.0,2.0,100,0.03,,,1.23,,2013-04-05 04:42:00,
2013-04-05 00:52:00,37.0,37.0,-100.00,WSW,258,2.0,3.0,100,0.00,,,1.24,,2013-04-05 04:52:00,
2013-04-05 01:02:00,37.0,37.0,-100.00,ESE,109,0.0,0.0,100,0.00,,,1.24,,2013-04-05 05:02:00,
2013-04-05 01:13:00,37.0,37.0,-100.00,ESE,109,0.0,0.0,100,0.00,,,1.24,,2013-04-05 05:13:00,
2013-04-05 01:22:00,37.0,37.0,-100.00,NE,48,1.0,2.0,100,0.00,,,1.24,,2013-04-05 05:22:00,
2013-04-05 01:32:00,37.0,37.0,-100.00,North,350,3.0,5.0,100,0.00,,,1.24,,2013-04-05 05:32:00,
2013-04-05 01:42:00,37.0,37.0,-100.00,North,350,3.0,5.0,100,0.00,,,1.24,,2013-04-05 05:42:00,
2013-04-05 01:53:00,37.0,37.0,-100.00,SW,223,0.0,2.0,100,0.00,,,1.24,,2013-04-05 05:53:00,
2013-04-05 02:02:00,37.0,37.0,-100.00,SW,223,0.0,2.0,100,0.00,,,1.24,,2013-04-05 06:02:00,
2013-04-05 02:12:00,37.0,37.0,-100.00,SW,223,0.0,2.0,100,0.00,,,1.24,,2013-04-05 06:12:00,
2013-04-05 02:22:00,37.0,37.0,-100.00,ENE,66,0.0,0.0,100,0.16,,,1.26,,2013-04-05 06:22:00,
2013-04-05 02:32:00,37.0,37.0,-100.00,NE,51,0.0,1.0,100,0.01,,,1.28,,2013-04-05 06:32:00,
2013-04-05 02:42:00,37.0,37.0,-100.00,NE,51,0.0,1.0,100,0.01,,,1.28,,2013-04-05 06:42:00,
2013-04-05 02:52:00,37.0,37.0,-100.00,West,281,1.0,2.0,100,0.00,,,1.28,,2013-04-05 06:52:00,
2013-04-05 03:03:00,37.0,37.0,-100.00,SSW,199,0.0,0.0,100,0.00,,,1.28,,2013-04-05 07:03:00,
2013-04-05 03:12:00,37.0,37.0,-100.00,SSW,199,0.0,0.0,100,0.00,,,1.28,,2013-04-05 07:12:00,
2013-04-05 03:22:00,37.0,37.0,-100.00,South,188,1.0,2.0,100,0.00,,,1.28,,2013-04-05 07:22:00,
2013-04-05 03:32:00,37.0,37.0,-100.00,South,188,1.0,2.0,100,0.00,,,1.28,,2013-04-05 07:32:00,
2013-04-05 03:42:00,37.0,37.0,-100.00,South,188,1.0,2.0,100,0.00,,,1.28,,2013-04-05 07:42:00,
2013-04-05 03:53:00,37.0,37.0,-100.00,West,280,0.0,1.0,100,0.00,,,1.28,,2013-04-05 07:53:00,
2013-04-05 04:03:00,37.0,37.0,-100.00,ESE,106,0.0,0.0,100,0.00,,,1.28,,2013-04-05 08:03:00,
2013-04-05 04:13:00,37.0,37.0,-100.00,ESE,106,0.0,0.0,100,0.00,,,1.28,,2013-04-05 08:13:00,
2013-04-05 04:23:00,37.0,37.0,-100.00,WSW,239,0.0,1.0,100,0.00,,,1.28,,2013-04-05 08:23:00,
2013-04-05 04:33:00,37.0,37.0,-100.00,WSW,239,0.0,0.0,100,0.00,,,1.28,,2013-04-05 08:33:00,
2013-04-05 04:43:00,37.0,37.0,-100.00,WSW,239,0.0,0.0,100,0.00,,,1.28,,2013-04-05 08:43:00,
2013-04-05 04:52:00,37.0,37.0,-100.00,ESE,121,0.0,0.0,100,0.00,,,1.28,,2013-04-05 08:52:00,
2013-04-05 05:02:00,38.0,38.0,-100.00,North,353,0.0,1.0,100,0.00,,,1.28,,2013-04-05 09:02:00,
2013-04-05 05:12:00,38.0,38.0,-100.00,North,353,0.0,1.0,100,0.00,,,1.28,,2013-04-05 09:12:00,
2013-04-05 05:22:00,38.0,38.0,-100.00,North,353,0.0,1.0,100,0.00,,,1.28,,2013-04-05 09:22:00,
2013-04-05 05:33:00,37.0,37.0,-100.00,ENE,64,3.0,4.0,100,0.00,,,1.28,,2013-04-05 09:33:00,
2013-04-05 05:43:00,38.0,38.0,-100.00,ENE,78,2.0,3.0,100,0.00,,,1.28,,2013-04-05 09:43:00,
2013-04-05 05:53:00,38.0,38.0,-100.00,ENE,78,2.0,3.0,100,0.00,,,1.28,,2013-04-05 09:53:00,
2013-04-05 06:03:00,38.0,38.0,-100.00,East,97,2.0,3.0,100,0.00,,,1.28,,2013-04-05 10:03:00,
2013-04-05 06:13:00,38.0,38.0,-100.00,East,97,2.0,3.0,100,0.00,,,1.28,,2013-04-05 10:13:00,
2013-04-05 06:23:00,38.0,38.0,-100.00,ESE,102,3.0,5.0,100,0.00,,,1.28,,2013-04-05 10:23:00,
2013-04-05 06:33:00,38.0,38.0,-100.00,East,96,3.0,4.0,100,0.00,,,1.28,,2013-04-05 10:33:00,
2013-04-05 06:43:00,38.0,38.0,-100.00,East,96,3.0,4.0,100,0.00,,,1.28,,2013-04-05 10:43:00,
2013-04-05 06:53:00,38.0,38.0,-100.00,SE,131,1.0,2.0,100,0.00,,,1.28,,2013-04-05 10:53:00,
2013-04-05 07:03:00,38.0,38.0,-100.00,East,85,0.0,1.0,100,0.00,,,1.28,,2013-04-05 11:03:00,
2013-04-05 07:13:00,38.0,38.0,-100.00,East,85,0.0,1.0,100,0.00,,,1.28,,2013-04-05 11:13:00,
2013-04-05 07:22:00,38.0,38.0,-100.00,SSE,165,1.0,3.0,100,0.00,,,1.28,,2013-04-05 11:22:00,
2013-04-05 07:33:00,38.0,38.0,-100.00,East,90,2.0,4.0,100,0.00,,,1.28,,2013-04-05 11:33:00,
2013-04-05 07:42:00,38.0,38.0,-100.00,East,90,2.0,4.0,100,0.00,,,1.28,,2013-04-05 11:42:00,
2013-04-05 07:52:00,38.0,38.0,-100.00,South,178,0.0,2.0,100,0.00,,,1.28,,2013-04-05 11:52:00,
2013-04-05 08:02:00,38.0,38.0,-100.00,South,175,1.0,2.0,100,0.00,,,1.28,,2013-04-05 12:02:00,
2013-04-05 08:12:00,38.0,38.0,-100.00,South,175,1.0,2.0,100,0.00,,,1.28,,2013-04-05 12:12:00,
2013-04-05 08:22:00,38.0,38.0,-100.00,South,182,0.0,2.0,100,0.00,,,1.28,,2013-04-05 12:22:00,
2013-04-05 08:32:00,39.0,39.0,-100.00,WSW,247,1.0,2.0,100,0.00,,,1.28,,2013-04-05 12:32:00,
2013-04-05 08:42:00,39.0,39.0,-100.00,WSW,247,1.0,2.0,100,0.00,,,1.28,,2013-04-05 12:42:00,
2013-04-05 08:53:00,39.0,39.0,-100.00,South,174,0.0,2.0,100,0.00,,,1.28,,2013-04-05 12:53:00,
2013-04-05 09:02:00,39.0,39.0,-100.00,SE,133,3.0,6.0,100,0.00,,,1.28,,2013-04-05 13:02:00,
2013-04-05 09:12:00,39.0,39.0,-100.00,SE,133,3.0,6.0,100,0.00,,,1.28,,2013-04-05 13:12:00,
2013-04-05 09:23:00,39.0,39.0,-100.00,East,97,4.0,7.0,100,0.00,,,1.28,,2013-04-05 13:23:00,
2013-04-05 09:32:00,40.0,40.0,-100.00,ESE,110,3.0,4.0,100,0.00,,,1.28,,2013-04-05 13:32:00,
2013-04-05 09:42:00,40.0,40.0,-100.00,ESE,110,3.0,4.0,100,0.00,,,1.28,,2013-04-05 13:42:00,
2013-04-05 09:53:00,41.0,40.0,-100.00,South,186,1.0,2.0,100,0.00,,,1.28,,2013-04-05 13:53:00,
2013-04-05 10:03:00,41.0,40.0,-100.00,South,186,2.0,3.0,99,0.00,,,1.28,,2013-04-05 14:03:00,
2013-04-05 10:12:00,41.0,40.0,-100.00,South,186,2.0,3.0,99,0.00,,,1.28,,2013-04-05 14:12:00,
2013-04-05 10:23:00,43.0,42.0,-100.00,SSE,154,2.0,4.0,98,0.00,,,1.28,,2013-04-05 14:23:00,
2013-04-05 10:37:00,43.0,41.0,-100.00,SE,127,4.0,6.0,92,0.00,,,1.28,,2013-04-05 14:37:00,
2013-04-05 10:43:00,43.0,41.0,-100.00,SE,127,4.0,6.0,92,0.00,,,1.28,,2013-04-05 14:43:00,
2013-04-05 10:54:00,44.0,38.0,-100.00,NW,316,5.0,7.0,82,0.00,,,1.28,,2013-04-05 14:54:00,
2013-04-05 11:02:00,44.0,39.0,-100.00,ENE,61,3.0,7.0,81,0.00,,,1.28,,2013-04-05 15:02:00,
2013-04-05 11:13:00,44.0,39.0,-100.00,ENE,61,3.0,7.0,81,0.00,,,1.28,,2013-04-05 15:13:00,
2013-04-05 11:23:00,47.0,41.0,-100.00,SE,138,4.0,6.0,80,0.00,,,1.28,,2013-04-05 15:23:00,
2013-04-05 11:33:00,45.0,39.0,-100.00,SSE,152,3.0,6.0,78,0.00,,,1.28,,2013-04-05 15:33:00,
2013-04-05 11:43:00,45.0,39.0,-100.00,SSE,152,3.0,6.0,78,0.00,,,1.28,,2013-04-05 15:43:00,
2013-04-05 11:54:00,45.0,39.0,-100.00,SSE,152,3.0,6.0,78,0.00,,,1.28,,2013-04-05 15:54:00,
2013-04-05 12:03:00,48.0,39.0,-100.00,ESE,112,8.0,12.0,70,0.00,,,1.28,,2013-04-05 16:03:00,
2013-04-05 12:14:00,48.0,39.0,-100.00,ESE,112,8.0,12.0,70,0.00,,,1.28,,2013-04-05 16:14:00,
2013-04-05 12:23:00,49.0,36.0,-100.00,East,90,7.0,12.0,59,0.00,,,1.28,,2013-04-05 16:23:00,
2013-04-05 12:33:00,50.0,32.0,-100.00,ENE,64,8.0,12.0,51,0.00,,,1.28,,2013-04-05 16:33:00,
2013-04-05 12:43:00,50.0,32.0,-100.00,ENE,64,8.0,12.0,51,0.00,,,1.28,,2013-04-05 16:43:00,
2013-04-05 12:53:00,53.0,35.0,-100.00,ESE,109,4.0,7.0,50,0.00,,,1.27,,2013-04-05 16:53:00,
2013-04-05 13:03:00,51.0,30.0,-100.00,NNE,20,3.0,7.0,44,0.00,,,1.26,,2013-04-05 17:03:00,
2013-04-05 13:13:00,51.0,30.0,-100.00,NNE,20,3.0,7.0,44,0.00,,,1.26,,2013-04-05 17:13:00,
2013-04-05 13:23:00,51.0,30.0,-100.00,NNE,20,3.0,7.0,44,0.00,,,1.26,,2013-04-05 17:23:00,
2013-04-05 13:33:00,51.0,32.0,-100.00,SSW,208,5.0,11.0,48,0.00,,,1.17,,2013-04-05 17:33:00,
2013-04-05 13:46:00,51.0,32.0,-100.00,SSW,208,5.0,11.0,48,0.00,,,1.17,,2013-04-05 17:46:00,
2013-04-05 13:53:00,51.0,30.0,-100.00,NE,45,5.0,9.0,44,0.00,,,1.11,,2013-04-05 17:53:00,
2013-04-05 14:02:00,53.0,35.0,-100.00,ESE,123,6.0,9.0,48,0.00,,,1.07,,2013-04-05 18:02:00,
2013-04-05 14:13:00,53.0,35.0,-100.00,ESE,123,6.0,9.0,48,0.00,,,1.07,,2013-04-05 18:13:00,
2013-04-05 14:23:00,51.0,31.0,-100.00,SE,145,5.0,8.0,45,0.00,,,1.02,,2013-04-05 18:23:00,
2013-04-05 14:33:00,54.0,31.0,-100.00,WSW,246,3.0,6.0,41,0.00,,,0.95,,2013-04-05 18:33:00,
2013-04-05 14:43:00,54.0,31.0,-100.00,WSW,246,3.0,6.0,41,0.00,,,0.95,,2013-04-05 18:43:00,
2013-04-05 14:53:00,56.0,32.0,-100.00,South,181,4.0,6.0,40,0.00,,,0.91,,2013-04-05 18:53:00,
2013-04-05 15:02:00,55.0,28.0,-100.00,South,175,5.0,8.0,34,0.00,,,0.83,,2013-04-05 19:02:00,
2013-04-05 15:14:00,55.0,28.0,-100.00,South,175,5.0,8.0,34,0.00,,,0.83,,2013-04-05 19:14:00,
2013-04-05 15:23:00,53.0,27.0,-100.00,East,99,12.0,16.0,36,0.00,,,0.78,,2013-04-05 19:23:00,
2013-04-05 15:33:00,58.0,29.0,-100.00,WNW,299,6.0,9.0,34,0.00,,,0.71,,2013-04-05 19:33:00,
2013-04-05 15:42:00,58.0,29.0,-100.00,WNW,299,6.0,9.0,34,0.00,,,0.71,,2013-04-05 19:42:00,
2013-04-05 15:53:00,56.0,27.0,-100.00,ESE,107,6.0,10.0,33,0.00,,,0.65,,2013-04-05 19:53:00,
2013-04-05 16:02:00,58.0,27.0,-100.00,East,82,6.0,9.0,31,0.00,,,0.59,,2013-04-05 20:02:00,
2013-04-05 16:11:00,58.0,27.0,-100.00,East,82,6.0,9.0,31,0.00,,,0.59,,2013-04-05 20:11:00,
2013-04-05 16:22:00,58.0,28.0,-100.00,East,83,3.0,7.0,32,0.00,,,0.56,,2013-04-05 20:22:00,
2013-04-05 16:33:00,56.0,29.0,-100.00,North,10,5.0,8.0,35,0.00,,,0.49,,2013-04-05 20:33:00,
2013-04-05 16:43:00,56.0,29.0,-100.00,North,10,5.0,8.0,35,0.00,,,0.49,,2013-04-05 20:43:00,
2013-04-05 16:53:00,56.0,27.0,-100.00,SE,128,6.0,10.0,32,0.00,,,0.43,,2013-04-05 20:53:00,
2013-04-05 17:02:00,58.0,27.0,-100.00,SE,136,4.0,8.0,31,0.00,,,0.38,,2013-04-05 21:02:00,
2013-04-05 17:13:00,58.0,27.0,-100.00,SE,136,4.0,8.0,31,0.00,,,0.38,,2013-04-05 21:13:00,
2013-04-05 17:24:00,58.0,27.0,-100.00,SE,136,4.0,8.0,31,0.00,,,0.38,,2013-04-05 21:24:00,
2013-04-05 17:34:00,57.0,27.0,-100.00,East,80,4.0,8.0,32,0.00,,,0.26,,2013-04-05 21:34:00,
2013-04-05 17:44:00,57.0,27.0,-100.00,East,80,4.0,8.0,32,0.00,,,0.26,,2013-04-05 21:44:00,
2013-04-05 17:55:00,57.0,27.0,-100.00,East,80,4.0,8.0,32,0.00,,,0.26,,2013-04-05 21:55:00,
2013-04-05 18:03:00,58.0,29.0,-100.00,ESE,102,4.0,7.0,33,0.00,,,0.20,,2013-04-05 22:03:00,
2013-04-05 18:13:00,56.0,27.0,-100.00,SE,145,5.0,8.0,32,0.00,,,0.18,,2013-04-05 22:13:00,
2013-04-05 18:23:00,56.0,27.0,-100.00,SE,145,5.0,8.0,32,0.00,,,0.18,,2013-04-05 22:23:00,
2013-04-05 18:33:00,57.0,28.0,-100.00,ESE,116,4.0,6.0,32,0.00,,,0.15,,2013-04-05 22:33:00,
2013-04-05 18:43:00,57.0,28.0,-100.00,ESE,116,4.0,6.0,32,0.00,,,0.15,,2013-04-05 22:43:00,
2013-04-05 18:53:00,57.0,26.0,-100.00,SSE,167,3.0,5.0,30,0.00,,,0.13,,2013-04-05 22:53:00,
2013-04-05 19:03:00,58.0,27.0,-100.00,NE,48,3.0,5.0,31,0.00,,,0.12,,2013-04-05 23:03:00,
2013-04-05 19:13:00,58.0,27.0,-100.00,NE,48,3.0,5.0,31,0.00,,,0.12,,2013-04-05 23:13:00,
2013-04-05 19:23:00,57.0,27.0,-100.00,East,83,5.0,8.0,32,0.00,,,0.11,,2013-04-05 23:23:00,
2013-04-05 19:33:00,56.0,27.0,-100.00,SE,133,2.0,4.0,33,0.00,,,0.11,,2013-04-05 23:33:00,
2013-04-05 19:42:00,56.0,27.0,-100.00,SE,133,2.0,4.0,33,0.00,,,0.11,,2013-04-05 23:42:00,
2013-04-05 19:53:00,55.0,27.0,-100.00,ENE,71,2.0,4.0,33,0.00,,,0.11,,2013-04-05 23:53:00,
2013-04-05 20:03:00,55.0,28.0,-100.00,SSE,165,1.0,2.0,35,0.00,,,0.11,,2013-04-06 00:03:00,
2013-04-05 20:13:00,55.0,28.0,-100.00,SSE,165,1.0,2.0,35,0.00,,,0.11,,2013-04-06 00:13:00,
2013-04-05 20:23:00,54.0,27.0,-100.00,ENE,58,0.0,2.0,35,0.00,,,0.11,,2013-04-06 00:23:00,
2013-04-05 20:33:00,53.0,29.0,-100.00,NE,49,1.0,2.0,39,0.00,,,0.11,,2013-04-06 00:33:00,
2013-04-05 20:42:00,53.0,29.0,-100.00,NE,49,1.0,2.0,39,0.00,,,0.11,,2013-04-06 00:42:00,
2013-04-05 20:52:00,53.0,27.0,-100.00,WSW,251,1.0,2.0,36,0.00,,,0.10,,2013-04-06 00:52:00,
2013-04-05 21:02:00,53.0,27.0,-100.00,WSW,251,1.0,2.0,36,0.00,,,0.10,,2013-04-06 01:02:00,
2013-04-05 21:13:00,53.0,27.0,-100.00,WSW,251,1.0,2.0,36,0.00,,,0.10,,2013-04-06 01:13:00,
2013-04-05 21:23:00,53.0,27.0,-100.00,WSW,251,1.0,2.0,36,0.00,,,0.10,,2013-04-06 01:23:00,
2013-04-05 21:33:00,53.0,26.0,-100.00,North,356,2.0,4.0,36,0.00,,,0.10,,2013-04-06 01:33:00,
2013-04-05 21:43:00,53.0,26.0,-100.00,North,356,2.0,4.0,36,0.00,,,0.10,,2013-04-06 01:43:00,
2013-04-05 21:53:00,52.0,27.0,-100.00,NNW,336,2.0,4.0,38,0.00,,,0.10,,2013-04-06 01:53:00,
2013-04-05 22:02:00,51.0,26.0,-100.00,North,352,2.0,2.0,38,0.00,,,0.10,,2013-04-06 02:02:00,
2013-04-05 22:12:00,51.0,26.0,-100.00,North,352,2.0,2.0,38,0.00,,,0.10,,2013-04-06 02:12:00,
2013-04-05 22:23:00,51.0,27.0,-100.00,NNW,344,1.0,1.0,39,0.00,,,0.10,,2013-04-06 02:23:00,
2013-04-05 22:33:00,51.0,26.0,-100.00,NNW,336,1.0,2.0,37,0.00,,,0.10,,2013-04-06 02:33:00,
2013-04-05 22:43:00,51.0,26.0,-100.00,NNW,336,1.0,2.0,37,0.00,,,0.10,,2013-04-06 02:43:00,
2013-04-05 22:53:00,51.0,26.0,-100.00,NNW,336,1.0,2.0,37,0.00,,,0.10,,2013-04-06 02:53:00,
2013-04-05 23:03:00,50.0,27.0,-100.00,North,3,3.0,4.0,39,0.00,,,0.10,,2013-04-06 03:03:00,
2013-04-05 23:13:00,50.0,27.0,-100.00,North,3,3.0,4.0,39,0.00,,,0.10,,2013-04-06 03:13:00,
2013-04-05 23:23:00,50.0,28.0,-100.00,North,349,2.0,4.0,41,0.00,,,0.10,,2013-04-06 03:23:00,
2013-04-05 23:34:00,50.0,28.0,-100.00,North,356,3.0,4.0,43,0.00,,,0.10,,2013-04-06 03:34:00,
2013-04-05 23:43:00,50.0,28.0,-100.00,North,356,3.0,4.0,43,0.00,,,0.10,,2013-04-06 03:43:00,
2013-04-05 23:55:00,49.0,27.0,-100.00,NW,325,2.0,3.0,42,0.00,,,0.10,,2013-04-06 03:55:00,